sensor_id;sensor_type;location;lat;lon;timestamp;P1;durP1;ratioP1;P2;durP2;ratioP2
10005;SDS011;5042;42.626;23.382;2023-04-01T00:01:04;8.70;;;4.93;;
10005;SDS011;5042;42.626;23.382;2023-04-01T00:03:32;7.77;;;5.83;;
10005;SDS011;5042;42.626;23.382;2023-04-01T00:06:00;9.13;;;5.90;;
10005;SDS011;5042;42.626;23.382;2023-04-01T00:08:27;7.73;;;5.43;;
10005;SDS011;5042;42.626;23.382;2023-04-01T00:10:54;5.87;;;5.17;;
10005;SDS011;5042;42.626;23.382;2023-04-01T00:13:23;8.33;;;6.07;;
10005;SDS011;5042;42.626;23.382;2023-04-01T00:15:50;6.60;;;5.50;;
10005;SDS011;5042;42.626;23.382;2023-04-01T00:18:17;8.33;;;5.90;;
10005;SDS011;5042;42.626;23.382;2023-04-01T00:20:45;8.00;;;5.37;;
10005;SDS011;5042;42.626;23.382;2023-04-01T00:23:12;7.87;;;5.70;;
10005;SDS011;5042;42.626;23.382;2023-04-01T00:25:40;7.63;;;5.43;;
10005;SDS011;5042;42.626;23.382;2023-04-01T00:28:07;7.63;;;4.93;;
10005;SDS011;5042;42.626;23.382;2023-04-01T00:30:36;5.90;;;4.70;;
10005;SDS011;5042;42.626;23.382;2023-04-01T00:33:03;7.13;;;4.80;;
10005;SDS011;5042;42.626;23.382;2023-04-01T00:35:30;9.30;;;5.10;;
10005;SDS011;5042;42.626;23.382;2023-04-01T00:37:57;6.63;;;4.60;;
10005;SDS011;5042;42.626;23.382;2023-04-01T00:40:26;8.67;;;4.47;;
10005;SDS011;5042;42.626;23.382;2023-04-01T00:42:54;6.47;;;4.47;;
10005;SDS011;5042;42.626;23.382;2023-04-01T00:45:31;6.23;;;4.73;;
10005;SDS011;5042;42.626;23.382;2023-04-01T00:48:03;5.67;;;4.63;;
10005;SDS011;5042;42.626;23.382;2023-04-01T00:50:33;10.40;;;4.77;;
10005;SDS011;5042;42.626;23.382;2023-04-01T00:53:02;8.13;;;5.00;;
10005;SDS011;5042;42.626;23.382;2023-04-01T00:55:30;7.23;;;4.30;;
10005;SDS011;5042;42.626;23.382;2023-04-01T00:58:00;5.40;;;3.93;;
10005;SDS011;5042;42.626;23.382;2023-04-01T01:00:29;5.43;;;4.30;;
10005;SDS011;5042;42.626;23.382;2023-04-01T01:02:56;7.43;;;4.40;;
10005;SDS011;5042;42.626;23.382;2023-04-01T01:05:26;6.37;;;4.23;;
10005;SDS011;5042;42.626;23.382;2023-04-01T01:08:05;4.47;;;3.53;;
10005;SDS011;5042;42.626;23.382;2023-04-01T01:10:41;7.13;;;4.10;;
10005;SDS011;5042;42.626;23.382;2023-04-01T01:13:14;4.70;;;3.87;;
10005;SDS011;5042;42.626;23.382;2023-04-01T01:15:49;6.97;;;3.90;;
10005;SDS011;5042;42.626;23.382;2023-04-01T01:18:24;4.07;;;3.50;;
10005;SDS011;5042;42.626;23.382;2023-04-01T01:21:16;4.47;;;3.17;;
10005;SDS011;5042;42.626;23.382;2023-04-01T01:24:08;3.87;;;3.40;;
10005;SDS011;5042;42.626;23.382;2023-04-01T01:26:57;4.70;;;2.90;;
10005;SDS011;5042;42.626;23.382;2023-04-01T01:35:30;7.37;;;3.23;;
10005;SDS011;5042;42.626;23.382;2023-04-01T01:38:01;3.20;;;2.80;;
10005;SDS011;5042;42.626;23.382;2023-04-01T01:40:31;4.43;;;3.13;;
10005;SDS011;5042;42.626;23.382;2023-04-01T01:42:59;5.60;;;3.20;;
10005;SDS011;5042;42.626;23.382;2023-04-01T01:45:32;3.57;;;2.70;;
10005;SDS011;5042;42.626;23.382;2023-04-01T01:48:02;3.50;;;2.80;;
10005;SDS011;5042;42.626;23.382;2023-04-01T01:50:32;3.93;;;2.70;;
10005;SDS011;5042;42.626;23.382;2023-04-01T01:53:01;2.70;;;2.50;;
10005;SDS011;5042;42.626;23.382;2023-04-01T01:55:30;3.93;;;2.80;;
10005;SDS011;5042;42.626;23.382;2023-04-01T01:58:00;4.03;;;2.50;;
10005;SDS011;5042;42.626;23.382;2023-04-01T02:00:32;3.87;;;2.40;;
10005;SDS011;5042;42.626;23.382;2023-04-01T02:03:00;2.83;;;2.50;;
10005;SDS011;5042;42.626;23.382;2023-04-01T02:05:27;4.47;;;2.57;;
10005;SDS011;5042;42.626;23.382;2023-04-01T02:08:00;2.80;;;2.37;;
10005;SDS011;5042;42.626;23.382;2023-04-01T02:10:30;4.50;;;2.67;;
10005;SDS011;5042;42.626;23.382;2023-04-01T02:13:01;2.57;;;2.37;;
10005;SDS011;5042;42.626;23.382;2023-04-01T02:15:32;3.27;;;2.83;;
10005;SDS011;5042;42.626;23.382;2023-04-01T02:18:03;3.93;;;2.77;;
10005;SDS011;5042;42.626;23.382;2023-04-01T02:20:30;5.57;;;2.93;;
10005;SDS011;5042;42.626;23.382;2023-04-01T02:22:59;3.80;;;2.77;;
10005;SDS011;5042;42.626;23.382;2023-04-01T02:25:28;5.83;;;2.87;;
10005;SDS011;5042;42.626;23.382;2023-04-01T02:27:59;5.50;;;3.17;;
10005;SDS011;5042;42.626;23.382;2023-04-01T02:30:27;5.07;;;2.73;;
10005;SDS011;5042;42.626;23.382;2023-04-01T02:32:55;3.83;;;2.80;;
10005;SDS011;5042;42.626;23.382;2023-04-01T02:35:25;3.07;;;2.67;;
10005;SDS011;5042;42.626;23.382;2023-04-01T02:37:53;3.37;;;2.37;;
10005;SDS011;5042;42.626;23.382;2023-04-01T02:40:22;3.67;;;2.63;;
10005;SDS011;5042;42.626;23.382;2023-04-01T02:42:49;4.53;;;2.60;;
10005;SDS011;5042;42.626;23.382;2023-04-01T02:45:16;6.27;;;2.67;;
10005;SDS011;5042;42.626;23.382;2023-04-01T02:47:43;3.53;;;2.83;;
10005;SDS011;5042;42.626;23.382;2023-04-01T02:50:10;2.83;;;2.40;;
10005;SDS011;5042;42.626;23.382;2023-04-01T02:52:36;2.77;;;2.57;;
10005;SDS011;5042;42.626;23.382;2023-04-01T02:55:04;4.10;;;2.90;;
10005;SDS011;5042;42.626;23.382;2023-04-01T02:57:33;2.87;;;2.27;;
10005;SDS011;5042;42.626;23.382;2023-04-01T03:00:00;4.27;;;2.87;;
10005;SDS011;5042;42.626;23.382;2023-04-01T03:02:26;4.43;;;2.63;;
10005;SDS011;5042;42.626;23.382;2023-04-01T03:04:53;4.90;;;2.70;;
10005;SDS011;5042;42.626;23.382;2023-04-01T03:07:20;4.53;;;2.77;;
10005;SDS011;5042;42.626;23.382;2023-04-01T03:09:46;5.20;;;2.60;;
10005;SDS011;5042;42.626;23.382;2023-04-01T03:12:13;4.87;;;2.57;;
10005;SDS011;5042;42.626;23.382;2023-04-01T03:14:41;3.67;;;2.57;;
10005;SDS011;5042;42.626;23.382;2023-04-01T03:17:08;3.83;;;2.60;;
10005;SDS011;5042;42.626;23.382;2023-04-01T03:19:35;3.27;;;2.33;;
10005;SDS011;5042;42.626;23.382;2023-04-01T03:22:02;3.00;;;2.70;;
10005;SDS011;5042;42.626;23.382;2023-04-01T03:24:28;6.53;;;2.77;;
10005;SDS011;5042;42.626;23.382;2023-04-01T03:26:55;4.57;;;2.63;;
10005;SDS011;5042;42.626;23.382;2023-04-01T03:29:22;5.30;;;2.50;;
10005;SDS011;5042;42.626;23.382;2023-04-01T03:31:50;3.70;;;1.70;;
10005;SDS011;5042;42.626;23.382;2023-04-01T03:34:17;2.23;;;1.30;;
10005;SDS011;5042;42.626;23.382;2023-04-01T03:36:43;1.60;;;0.90;;
10005;SDS011;5042;42.626;23.382;2023-04-01T03:39:10;1.60;;;1.20;;
10005;SDS011;5042;42.626;23.382;2023-04-01T03:41:37;5.53;;;2.10;;
10005;SDS011;5042;42.626;23.382;2023-04-01T03:44:04;5.03;;;1.80;;
10005;SDS011;5042;42.626;23.382;2023-04-01T03:46:31;5.67;;;2.27;;
10005;SDS011;5042;42.626;23.382;2023-04-01T03:48:59;4.20;;;3.80;;
10005;SDS011;5042;42.626;23.382;2023-04-01T03:51:26;5.07;;;4.17;;
10005;SDS011;5042;42.626;23.382;2023-04-01T03:53:52;6.33;;;4.00;;
10005;SDS011;5042;42.626;23.382;2023-04-01T03:56:20;6.17;;;4.10;;
10005;SDS011;5042;42.626;23.382;2023-04-01T03:58:46;3.70;;;3.30;;
10005;SDS011;5042;42.626;23.382;2023-04-01T04:01:14;5.03;;;3.87;;
10005;SDS011;5042;42.626;23.382;2023-04-01T04:03:42;4.67;;;3.33;;
10005;SDS011;5042;42.626;23.382;2023-04-01T04:06:13;4.30;;;3.90;;
10005;SDS011;5042;42.626;23.382;2023-04-01T04:08:40;7.40;;;4.23;;
10005;SDS011;5042;42.626;23.382;2023-04-01T04:11:07;4.83;;;3.70;;
10005;SDS011;5042;42.626;23.382;2023-04-01T04:13:34;5.03;;;3.87;;
10005;SDS011;5042;42.626;23.382;2023-04-01T04:16:01;5.60;;;3.97;;
10005;SDS011;5042;42.626;23.382;2023-04-01T04:18:28;4.63;;;4.00;;
10005;SDS011;5042;42.626;23.382;2023-04-01T04:20:55;5.70;;;4.20;;
10005;SDS011;5042;42.626;23.382;2023-04-01T04:23:23;4.90;;;3.93;;
10005;SDS011;5042;42.626;23.382;2023-04-01T04:25:53;4.20;;;3.80;;
10005;SDS011;5042;42.626;23.382;2023-04-01T04:28:22;4.73;;;3.33;;
10005;SDS011;5042;42.626;23.382;2023-04-01T04:30:48;4.37;;;3.40;;
10005;SDS011;5042;42.626;23.382;2023-04-01T04:33:15;3.17;;;2.53;;
10005;SDS011;5042;42.626;23.382;2023-04-01T04:35:42;3.43;;;2.80;;
10005;SDS011;5042;42.626;23.382;2023-04-01T04:38:09;4.50;;;2.80;;
10005;SDS011;5042;42.626;23.382;2023-04-01T04:40:37;3.20;;;2.40;;
10005;SDS011;5042;42.626;23.382;2023-04-01T04:43:05;3.37;;;2.47;;
10005;SDS011;5042;42.626;23.382;2023-04-01T04:45:32;2.53;;;2.33;;
10005;SDS011;5042;42.626;23.382;2023-04-01T04:47:59;2.57;;;2.37;;
10005;SDS011;5042;42.626;23.382;2023-04-01T04:50:26;3.33;;;2.20;;
10005;SDS011;5042;42.626;23.382;2023-04-01T04:52:53;2.57;;;2.37;;
10005;SDS011;5042;42.626;23.382;2023-04-01T04:55:20;5.70;;;2.50;;
10005;SDS011;5042;42.626;23.382;2023-04-01T04:57:48;3.93;;;1.97;;
10005;SDS011;5042;42.626;23.382;2023-04-01T05:00:17;3.83;;;1.80;;
10005;SDS011;5042;42.626;23.382;2023-04-01T05:02:44;3.23;;;1.50;;
10005;SDS011;5042;42.626;23.382;2023-04-01T05:05:11;3.50;;;2.00;;
10005;SDS011;5042;42.626;23.382;2023-04-01T05:07:38;1.67;;;1.37;;
10005;SDS011;5042;42.626;23.382;2023-04-01T05:10:05;2.10;;;1.70;;
10005;SDS011;5042;42.626;23.382;2023-04-01T05:12:33;4.30;;;2.27;;
10005;SDS011;5042;42.626;23.382;2023-04-01T05:15:04;3.30;;;2.27;;
10005;SDS011;5042;42.626;23.382;2023-04-01T05:17:31;3.27;;;2.50;;
10005;SDS011;5042;42.626;23.382;2023-04-01T05:19:58;5.50;;;3.27;;
10005;SDS011;5042;42.626;23.382;2023-04-01T05:22:25;6.33;;;3.10;;
10005;SDS011;5042;42.626;23.382;2023-04-01T05:24:52;4.07;;;3.13;;
10005;SDS011;5042;42.626;23.382;2023-04-01T05:27:19;5.37;;;2.80;;
10005;SDS011;5042;42.626;23.382;2023-04-01T05:29:46;3.07;;;2.77;;
10005;SDS011;5042;42.626;23.382;2023-04-01T05:32:14;5.37;;;3.07;;
10005;SDS011;5042;42.626;23.382;2023-04-01T05:34:41;3.10;;;2.80;;
10005;SDS011;5042;42.626;23.382;2023-04-01T05:37:08;5.60;;;3.63;;
10005;SDS011;5042;42.626;23.382;2023-04-01T05:39:35;5.43;;;3.63;;
10005;SDS011;5042;42.626;23.382;2023-04-01T05:42:04;4.27;;;3.70;;
10005;SDS011;5042;42.626;23.382;2023-04-01T05:44:32;6.93;;;4.03;;
10005;SDS011;5042;42.626;23.382;2023-04-01T05:46:59;6.70;;;4.10;;
10005;SDS011;5042;42.626;23.382;2023-04-01T05:49:27;5.20;;;3.83;;
10005;SDS011;5042;42.626;23.382;2023-04-01T05:51:54;6.47;;;3.70;;
10005;SDS011;5042;42.626;23.382;2023-04-01T05:54:21;4.82;;;3.65;;
10005;SDS011;5042;42.626;23.382;2023-04-01T05:56:48;4.03;;;3.58;;
10005;SDS011;5042;42.626;23.382;2023-04-01T05:59:15;6.10;;;4.18;;
10005;SDS011;5042;42.626;23.382;2023-04-01T06:01:42;5.32;;;3.78;;
10005;SDS011;5042;42.626;23.382;2023-04-01T06:04:10;6.88;;;3.60;;
10005;SDS011;5042;42.626;23.382;2023-04-01T06:06:42;6.78;;;3.72;;
10005;SDS011;5042;42.626;23.382;2023-04-01T06:09:12;4.53;;;3.28;;
10005;SDS011;5042;42.626;23.382;2023-04-01T06:11:44;3.83;;;3.00;;
10005;SDS011;5042;42.626;23.382;2023-04-01T06:14:26;6.07;;;3.25;;
10005;SDS011;5042;42.626;23.382;2023-04-01T06:17:04;6.40;;;3.10;;
10005;SDS011;5042;42.626;23.382;2023-04-01T06:19:50;3.20;;;2.90;;
10005;SDS011;5042;42.626;23.382;2023-04-01T06:22:35;4.82;;;3.20;;
10005;SDS011;5042;42.626;23.382;2023-04-01T06:25:29;5.60;;;3.50;;
10005;SDS011;5042;42.626;23.382;2023-04-01T06:28:07;4.25;;;3.08;;
10005;SDS011;5042;42.626;23.382;2023-04-01T06:30:56;3.53;;;2.88;;
10005;SDS011;5042;42.626;23.382;2023-04-01T06:33:39;7.45;;;3.45;;
10005;SDS011;5042;42.626;23.382;2023-04-01T06:36:33;3.53;;;3.22;;
10005;SDS011;5042;42.626;23.382;2023-04-01T06:39:32;4.38;;;3.22;;
10005;SDS011;5042;42.626;23.382;2023-04-01T06:42:19;6.40;;;3.33;;
10005;SDS011;5042;42.626;23.382;2023-04-01T06:45:01;5.47;;;4.70;;
10005;SDS011;5042;42.626;23.382;2023-04-01T06:47:44;4.20;;;3.50;;
10005;SDS011;5042;42.626;23.382;2023-04-01T06:50:22;5.47;;;3.60;;
10005;SDS011;5042;42.626;23.382;2023-04-01T06:52:55;7.37;;;4.13;;
10005;SDS011;5042;42.626;23.382;2023-04-01T06:55:32;9.17;;;5.87;;
10005;SDS011;5042;42.626;23.382;2023-04-01T06:58:10;5.73;;;3.33;;
10005;SDS011;5042;42.626;23.382;2023-04-01T07:00:43;5.03;;;3.47;;
10005;SDS011;5042;42.626;23.382;2023-04-01T07:03:14;5.20;;;3.60;;
10005;SDS011;5042;42.626;23.382;2023-04-01T07:05:47;9.13;;;3.83;;
10005;SDS011;5042;42.626;23.382;2023-04-01T07:08:16;5.13;;;3.60;;
10005;SDS011;5042;42.626;23.382;2023-04-01T07:10:50;4.73;;;3.70;;
10005;SDS011;5042;42.626;23.382;2023-04-01T07:13:22;5.13;;;3.57;;
10005;SDS011;5042;42.626;23.382;2023-04-01T07:15:58;6.23;;;4.50;;
10005;SDS011;5042;42.626;23.382;2023-04-01T07:18:32;6.97;;;4.10;;
10005;SDS011;5042;42.626;23.382;2023-04-01T07:21:03;6.10;;;3.73;;
10005;SDS011;5042;42.626;23.382;2023-04-01T07:23:36;5.67;;;4.07;;
10005;SDS011;5042;42.626;23.382;2023-04-01T07:26:20;6.97;;;4.47;;
10005;SDS011;5042;42.626;23.382;2023-04-01T07:28:47;5.60;;;4.10;;
10005;SDS011;5042;42.626;23.382;2023-04-01T07:31:16;8.20;;;4.73;;
10005;SDS011;5042;42.626;23.382;2023-04-01T07:33:55;5.23;;;4.60;;
10005;SDS011;5042;42.626;23.382;2023-04-01T07:36:30;6.13;;;4.07;;
10005;SDS011;5042;42.626;23.382;2023-04-01T07:39:06;6.83;;;5.20;;
10005;SDS011;5042;42.626;23.382;2023-04-01T07:41:48;6.70;;;4.23;;
10005;SDS011;5042;42.626;23.382;2023-04-01T07:44:23;9.50;;;4.73;;
10005;SDS011;5042;42.626;23.382;2023-04-01T07:49:54;4.80;;;4.30;;
10005;SDS011;5042;42.626;23.382;2023-04-01T07:52:34;7.60;;;4.87;;
10005;SDS011;5042;42.626;23.382;2023-04-01T07:55:10;6.30;;;4.40;;
10005;SDS011;5042;42.626;23.382;2023-04-01T07:57:46;9.90;;;5.00;;
10005;SDS011;5042;42.626;23.382;2023-04-01T08:00:19;10.20;;;5.23;;
10005;SDS011;5042;42.626;23.382;2023-04-01T08:02:57;9.07;;;4.87;;
10005;SDS011;5042;42.626;23.382;2023-04-01T08:05:39;5.43;;;4.00;;
10005;SDS011;5042;42.626;23.382;2023-04-01T08:08:10;5.60;;;3.80;;
10005;SDS011;5042;42.626;23.382;2023-04-01T08:10:45;4.80;;;4.10;;
10005;SDS011;5042;42.626;23.382;2023-04-01T08:13:20;4.90;;;3.97;;
10005;SDS011;5042;42.626;23.382;2023-04-01T08:16:01;6.07;;;4.30;;
10005;SDS011;5042;42.626;23.382;2023-04-01T08:18:37;6.00;;;3.57;;
10005;SDS011;5042;42.626;23.382;2023-04-01T08:21:10;7.03;;;4.13;;
10005;SDS011;5042;42.626;23.382;2023-04-01T08:23:43;3.97;;;3.63;;
10005;SDS011;5042;42.626;23.382;2023-04-01T08:26:13;10.23;;;4.77;;
10005;SDS011;5042;42.626;23.382;2023-04-01T08:28:49;5.93;;;3.90;;
10005;SDS011;5042;42.626;23.382;2023-04-01T08:31:23;6.83;;;3.90;;
10005;SDS011;5042;42.626;23.382;2023-04-01T08:33:56;7.30;;;3.97;;
10005;SDS011;5042;42.626;23.382;2023-04-01T08:36:24;5.55;;;3.47;;
10005;SDS011;5042;42.626;23.382;2023-04-01T08:38:55;4.90;;;3.93;;
10005;SDS011;5042;42.626;23.382;2023-04-01T08:41:30;7.25;;;3.28;;
10005;SDS011;5042;42.626;23.382;2023-04-01T08:44:17;5.43;;;3.63;;
10005;SDS011;5042;42.626;23.382;2023-04-01T08:47:09;5.53;;;3.70;;
10005;SDS011;5042;42.626;23.382;2023-04-01T08:52:43;5.18;;;3.78;;
10005;SDS011;5042;42.626;23.382;2023-04-01T08:55:25;3.60;;;3.15;;
10005;SDS011;5042;42.626;23.382;2023-04-01T09:01:07;5.80;;;3.67;;
10005;SDS011;5042;42.626;23.382;2023-04-01T09:03:57;5.65;;;3.17;;
10005;SDS011;5042;42.626;23.382;2023-04-01T09:06:37;5.75;;;3.50;;
10005;SDS011;5042;42.626;23.382;2023-04-01T09:12:25;5.05;;;2.80;;
10005;SDS011;5042;42.626;23.382;2023-04-01T09:15:20;2.88;;;2.60;;
10005;SDS011;5042;42.626;23.382;2023-04-01T09:18:18;4.30;;;2.88;;
10005;SDS011;5042;42.626;23.382;2023-04-01T09:21:13;5.68;;;2.72;;
10005;SDS011;5042;42.626;23.382;2023-04-01T09:24:00;4.03;;;2.38;;
10005;SDS011;5042;42.626;23.382;2023-04-01T09:26:54;5.10;;;3.10;;
10005;SDS011;5042;42.626;23.382;2023-04-01T09:32:51;4.68;;;3.22;;
10005;SDS011;5042;42.626;23.382;2023-04-01T09:35:37;4.65;;;2.83;;
10005;SDS011;5042;42.626;23.382;2023-04-01T09:38:18;6.70;;;3.13;;
10005;SDS011;5042;42.626;23.382;2023-04-01T09:40:48;4.03;;;3.00;;
10005;SDS011;5042;42.626;23.382;2023-04-01T09:43:23;3.58;;;2.70;;
10005;SDS011;5042;42.626;23.382;2023-04-01T09:45:56;5.38;;;3.10;;
10005;SDS011;5042;42.626;23.382;2023-04-01T09:48:37;4.18;;;2.60;;
10005;SDS011;5042;42.626;23.382;2023-04-01T09:51:25;7.28;;;2.65;;
10005;SDS011;5042;42.626;23.382;2023-04-01T09:54:13;3.38;;;2.55;;
10005;SDS011;5042;42.626;23.382;2023-04-01T10:00:24;6.00;;;2.67;;
10005;SDS011;5042;42.626;23.382;2023-04-01T10:06:30;4.60;;;3.42;;
10005;SDS011;5042;42.626;23.382;2023-04-01T10:18:56;3.53;;;2.50;;
10005;SDS011;5042;42.626;23.382;2023-04-01T10:24:53;5.83;;;3.00;;
10005;SDS011;5042;42.626;23.382;2023-04-01T10:34:00;3.43;;;2.60;;
10005;SDS011;5042;42.626;23.382;2023-04-01T10:36:57;6.85;;;3.00;;
10005;SDS011;5042;42.626;23.382;2023-04-01T10:39:37;3.95;;;3.10;;
10005;SDS011;5042;42.626;23.382;2023-04-01T10:42:34;3.17;;;2.85;;
10005;SDS011;5042;42.626;23.382;2023-04-01T10:45:23;5.68;;;3.20;;
10005;SDS011;5042;42.626;23.382;2023-04-01T10:48:13;8.38;;;3.17;;
10005;SDS011;5042;42.626;23.382;2023-04-01T10:56:57;2.78;;;2.50;;
10005;SDS011;5042;42.626;23.382;2023-04-01T11:02:38;3.40;;;2.67;;
10005;SDS011;5042;42.626;23.382;2023-04-01T11:05:47;2.95;;;2.40;;
10005;SDS011;5042;42.626;23.382;2023-04-01T11:14:50;3.30;;;2.60;;
10005;SDS011;5042;42.626;23.382;2023-04-01T11:20:56;4.75;;;2.92;;
10005;SDS011;5042;42.626;23.382;2023-04-01T11:23:58;4.50;;;2.85;;
10005;SDS011;5042;42.626;23.382;2023-04-01T11:26:45;2.15;;;1.80;;
10005;SDS011;5042;42.626;23.382;2023-04-01T11:29:38;5.63;;;1.42;;
10005;SDS011;5042;42.626;23.382;2023-04-01T11:32:23;1.85;;;1.27;;
10005;SDS011;5042;42.626;23.382;2023-04-01T11:35:12;2.25;;;1.25;;
10005;SDS011;5042;42.626;23.382;2023-04-01T11:38:02;1.80;;;1.17;;
10005;SDS011;5042;42.626;23.382;2023-04-01T11:40:41;4.80;;;1.50;;
10005;SDS011;5042;42.626;23.382;2023-04-01T11:43:14;5.53;;;1.55;;
10005;SDS011;5042;42.626;23.382;2023-04-01T11:45:48;3.25;;;1.95;;
10005;SDS011;5042;42.626;23.382;2023-04-01T11:48:31;1.77;;;1.40;;
10005;SDS011;5042;42.626;23.382;2023-04-01T11:54:04;1.50;;;1.40;;
10005;SDS011;5042;42.626;23.382;2023-04-01T11:56:45;4.28;;;1.60;;
10005;SDS011;5042;42.626;23.382;2023-04-01T11:59:35;3.92;;;1.95;;
10005;SDS011;5042;42.626;23.382;2023-04-01T12:02:16;3.60;;;1.90;;
10005;SDS011;5042;42.626;23.382;2023-04-01T12:04:56;4.60;;;1.80;;
10005;SDS011;5042;42.626;23.382;2023-04-01T12:07:32;6.03;;;2.03;;
10005;SDS011;5042;42.626;23.382;2023-04-01T12:10:15;3.30;;;1.67;;
10005;SDS011;5042;42.626;23.382;2023-04-01T12:12:46;3.27;;;1.60;;
10005;SDS011;5042;42.626;23.382;2023-04-01T12:15:23;3.97;;;2.17;;
10005;SDS011;5042;42.626;23.382;2023-04-01T12:17:57;5.70;;;2.10;;
10005;SDS011;5042;42.626;23.382;2023-04-01T12:20:36;1.93;;;1.80;;
10005;SDS011;5042;42.626;23.382;2023-04-01T12:23:15;4.20;;;2.23;;
10005;SDS011;5042;42.626;23.382;2023-04-01T12:26:07;3.23;;;2.60;;
10005;SDS011;5042;42.626;23.382;2023-04-01T12:28:57;3.40;;;3.10;;
10005;SDS011;5042;42.626;23.382;2023-04-01T12:31:37;3.27;;;2.97;;
10005;SDS011;5042;42.626;23.382;2023-04-01T12:37:10;5.00;;;2.87;;
10005;SDS011;5042;42.626;23.382;2023-04-01T12:39:57;2.37;;;2.20;;
10005;SDS011;5042;42.626;23.382;2023-04-01T12:42:38;2.97;;;2.27;;
10005;SDS011;5042;42.626;23.382;2023-04-01T12:45:22;4.80;;;2.37;;
10005;SDS011;5042;42.626;23.382;2023-04-01T12:48:00;3.20;;;2.20;;
10005;SDS011;5042;42.626;23.382;2023-04-01T12:50:49;3.73;;;2.40;;
10005;SDS011;5042;42.626;23.382;2023-04-01T12:53:35;3.27;;;2.57;;
10005;SDS011;5042;42.626;23.382;2023-04-01T12:56:13;7.83;;;2.93;;
10005;SDS011;5042;42.626;23.382;2023-04-01T12:58:53;3.33;;;3.03;;
10005;SDS011;5042;42.626;23.382;2023-04-01T13:01:40;3.47;;;3.10;;
10005;SDS011;5042;42.626;23.382;2023-04-01T13:07:48;4.17;;;2.80;;
10005;SDS011;5042;42.626;23.382;2023-04-01T13:10:30;5.50;;;3.13;;
10005;SDS011;5042;42.626;23.382;2023-04-01T13:13:16;4.30;;;3.60;;
10005;SDS011;5042;42.626;23.382;2023-04-01T13:15:54;3.83;;;3.10;;
10005;SDS011;5042;42.626;23.382;2023-04-01T13:18:28;3.53;;;2.70;;
10005;SDS011;5042;42.626;23.382;2023-04-01T13:21:06;5.67;;;2.97;;
10005;SDS011;5042;42.626;23.382;2023-04-01T13:23:40;3.20;;;2.90;;
10005;SDS011;5042;42.626;23.382;2023-04-01T13:26:20;3.43;;;2.83;;
10005;SDS011;5042;42.626;23.382;2023-04-01T13:28:55;3.93;;;3.10;;
10005;SDS011;5042;42.626;23.382;2023-04-01T13:31:41;3.93;;;2.60;;
10005;SDS011;5042;42.626;23.382;2023-04-01T13:34:29;3.83;;;2.57;;
10005;SDS011;5042;42.626;23.382;2023-04-01T13:37:10;3.70;;;2.33;;
10005;SDS011;5042;42.626;23.382;2023-04-01T13:39:57;1.30;;;1.20;;
10005;SDS011;5042;42.626;23.382;2023-04-01T13:42:40;1.30;;;1.20;;
10005;SDS011;5042;42.626;23.382;2023-04-01T13:45:14;1.60;;;1.10;;
10005;SDS011;5042;42.626;23.382;2023-04-01T13:50:56;1.10;;;1.00;;
10005;SDS011;5042;42.626;23.382;2023-04-01T13:53:55;0.88;;;0.88;;
10005;SDS011;5042;42.626;23.382;2023-04-01T13:56:36;1.73;;;1.20;;
10005;SDS011;5042;42.626;23.382;2023-04-01T13:59:16;1.23;;;1.13;;
10005;SDS011;5042;42.626;23.382;2023-04-01T14:02:07;1.45;;;1.35;;
10005;SDS011;5042;42.626;23.382;2023-04-01T14:04:53;1.30;;;1.20;;
10005;SDS011;5042;42.626;23.382;2023-04-01T14:07:35;1.05;;;1.00;;
10005;SDS011;5042;42.626;23.382;2023-04-01T14:10:15;3.63;;;2.33;;
10005;SDS011;5042;42.626;23.382;2023-04-01T14:12:50;3.35;;;2.28;;
10005;SDS011;5042;42.626;23.382;2023-04-01T14:15:32;2.47;;;2.28;;
10005;SDS011;5042;42.626;23.382;2023-04-01T14:18:11;5.93;;;2.70;;
10005;SDS011;5042;42.626;23.382;2023-04-01T14:20:51;5.80;;;2.97;;
10005;SDS011;5042;42.626;23.382;2023-04-01T14:23:36;3.93;;;2.93;;
10005;SDS011;5042;42.626;23.382;2023-04-01T14:29:11;3.67;;;2.57;;
10005;SDS011;5042;42.626;23.382;2023-04-01T14:31:57;2.60;;;2.40;;
10005;SDS011;5042;42.626;23.382;2023-04-01T14:34:39;4.53;;;2.60;;
10005;SDS011;5042;42.626;23.382;2023-04-01T14:40:20;2.90;;;2.20;;
10005;SDS011;5042;42.626;23.382;2023-04-01T14:43:01;3.00;;;2.30;;
10005;SDS011;5042;42.626;23.382;2023-04-01T14:48:56;3.03;;;2.73;;
10005;SDS011;5042;42.626;23.382;2023-04-01T14:51:28;4.50;;;2.57;;
10005;SDS011;5042;42.626;23.382;2023-04-01T14:54:00;2.80;;;2.60;;
10005;SDS011;5042;42.626;23.382;2023-04-01T14:56:37;4.10;;;2.80;;
10005;SDS011;5042;42.626;23.382;2023-04-01T14:59:07;2.93;;;2.43;;
10005;SDS011;5042;42.626;23.382;2023-04-01T15:01:37;4.03;;;2.87;;
10005;SDS011;5042;42.626;23.382;2023-04-01T15:04:26;2.57;;;2.23;;
10005;SDS011;5042;42.626;23.382;2023-04-01T15:07:32;3.00;;;2.70;;
10005;SDS011;5042;42.626;23.382;2023-04-01T15:10:12;3.33;;;2.30;;
10005;SDS011;5042;42.626;23.382;2023-04-01T15:12:52;4.33;;;2.80;;
10005;SDS011;5042;42.626;23.382;2023-04-01T15:15:32;3.57;;;2.57;;
10005;SDS011;5042;42.626;23.382;2023-04-01T15:18:08;3.83;;;2.27;;
10005;SDS011;5042;42.626;23.382;2023-04-01T15:20:45;2.50;;;2.30;;
10005;SDS011;5042;42.626;23.382;2023-04-01T15:23:27;3.70;;;2.30;;
10005;SDS011;5042;42.626;23.382;2023-04-01T15:26:16;2.03;;;1.90;;
10005;SDS011;5042;42.626;23.382;2023-04-01T15:28:52;2.50;;;2.30;;
10005;SDS011;5042;42.626;23.382;2023-04-01T15:31:29;4.10;;;2.40;;
10005;SDS011;5042;42.626;23.382;2023-04-01T15:34:17;5.27;;;2.70;;
10005;SDS011;5042;42.626;23.382;2023-04-01T15:36:55;2.70;;;2.50;;
10005;SDS011;5042;42.626;23.382;2023-04-01T15:39:29;2.70;;;2.50;;
10005;SDS011;5042;42.626;23.382;2023-04-01T15:42:15;3.67;;;2.73;;
10005;SDS011;5042;42.626;23.382;2023-04-01T15:44:53;3.00;;;2.50;;
10005;SDS011;5042;42.626;23.382;2023-04-01T15:47:34;2.53;;;2.27;;
10005;SDS011;5042;42.626;23.382;2023-04-01T15:50:26;3.10;;;2.80;;
10005;SDS011;5042;42.626;23.382;2023-04-01T15:53:09;2.40;;;2.17;;
10005;SDS011;5042;42.626;23.382;2023-04-01T15:55:48;4.27;;;2.90;;
10005;SDS011;5042;42.626;23.382;2023-04-01T15:58:32;2.97;;;2.20;;
10005;SDS011;5042;42.626;23.382;2023-04-01T16:01:14;0.90;;;0.90;;
10005;SDS011;5042;42.626;23.382;2023-04-01T16:03:51;0.90;;;0.90;;
10005;SDS011;5042;42.626;23.382;2023-04-01T16:09:32;2.87;;;1.30;;
10005;SDS011;5042;42.626;23.382;2023-04-01T16:12:24;1.53;;;1.43;;
10005;SDS011;5042;42.626;23.382;2023-04-01T16:15:06;2.70;;;1.40;;
10005;SDS011;5042;42.626;23.382;2023-04-01T16:17:48;1.43;;;1.33;;
10005;SDS011;5042;42.626;23.382;2023-04-01T16:20:34;4.87;;;1.53;;
10005;SDS011;5042;42.626;23.382;2023-04-01T16:23:11;1.50;;;1.27;;
10005;SDS011;5042;42.626;23.382;2023-04-01T16:25:46;1.50;;;1.40;;
10005;SDS011;5042;42.626;23.382;2023-04-01T16:28:20;1.03;;;0.97;;
10005;SDS011;5042;42.626;23.382;2023-04-01T16:30:55;1.40;;;1.30;;
10005;SDS011;5042;42.626;23.382;2023-04-01T16:33:30;1.60;;;1.50;;
10005;SDS011;5042;42.626;23.382;2023-04-01T16:36:07;1.40;;;1.30;;
10005;SDS011;5042;42.626;23.382;2023-04-01T16:38:41;1.73;;;1.60;;
10005;SDS011;5042;42.626;23.382;2023-04-01T16:41:16;1.63;;;1.53;;
10005;SDS011;5042;42.626;23.382;2023-04-01T16:43:48;1.30;;;1.20;;
10005;SDS011;5042;42.626;23.382;2023-04-01T16:46:26;1.23;;;1.17;;
10005;SDS011;5042;42.626;23.382;2023-04-01T16:48:58;1.90;;;1.57;;
10005;SDS011;5042;42.626;23.382;2023-04-01T16:51:32;1.33;;;1.23;;
10005;SDS011;5042;42.626;23.382;2023-04-01T16:54:11;1.53;;;1.43;;
10005;SDS011;5042;42.626;23.382;2023-04-01T16:56:44;1.80;;;1.63;;
10005;SDS011;5042;42.626;23.382;2023-04-01T16:59:16;1.40;;;1.30;;
10005;SDS011;5042;42.626;23.382;2023-04-01T17:01:49;1.17;;;1.17;;
10005;SDS011;5042;42.626;23.382;2023-04-01T17:04:25;1.47;;;1.37;;
10005;SDS011;5042;42.626;23.382;2023-04-01T17:07:01;2.83;;;1.37;;
10005;SDS011;5042;42.626;23.382;2023-04-01T17:09:51;1.43;;;1.10;;